• Join FlightAware (Why Join?)
  • Login
  • US Flag 
10:08AM EDT


 

Airport Tracker/Info


-or-


 

Live Flight TrackerFlight Track Log ✈ JZA144 ✈ 14-Mar-2012 ✈ CYYC - CYEG

Flight Track Log - Related Links

Times and Time Zones

All times are in EDT time to prevent confusion due to time zone crossing. See the JZA144 flight status page for this flight to view local times or setup timezone preferences in your user account.

Time Position Orientation Groundspeed Altitude Reporting Facility
EDT Latitude Longitude Course Direction KTS MPH feet Rate Location/Type
03:44PM 51.0500 -114.0500 192° South 160 184 5,300  Level Edmonton Center
03:45PM 51.0000 -114.0667 309° West 190 219 8,500 3,000 Climbing Edmonton Center
03:46PM 51.0333 -114.1333 351° North 210 242 11,300 2,460 Climbing Edmonton Center
03:47PM 51.1000 -114.1500 North 290 334 13,500 2,520 Climbing Edmonton Center
03:48PM 51.1833 -114.1333 360° North 290 334 16,400 2,700 Climbing Edmonton Center
03:49PM 51.2667 -114.1333 353° North 300 345 19,000 2,100 Climbing Edmonton Center
03:50PM 51.3500 -114.1500 North 310 357 20,600 1,800 Climbing Edmonton Center
03:51PM 51.4500 -114.1333 353° North 320 368 22,600 1,620 Climbing Edmonton Center
03:52PM 51.5333 -114.1500 360° North 330 380 23,900 660 Climbing Edmonton Center
03:53PM 51.6333 -114.1500 360° North 350 403 24,000  Climbing Edmonton Center
03:54PM 51.7333 -114.1500 355° North 370 426 24,000  Level Edmonton Center
03:55PM 51.8500 -114.1667 360° North 390 449 24,000  Level Edmonton Center
03:56PM 51.9500 -114.1667 360° North 400 460 24,000  Level Edmonton Center
03:57PM 52.0833 -114.1667 360° North 400 460 24,000  Level Edmonton Center
03:58PM 52.2000 -114.1667 360° North 400 460 24,000  Level Edmonton Center
03:59PM 52.3167 -114.1667 354° North 400 460 24,000 -1,020 Level Edmonton Center
04:00PM 52.4167 -114.1833 North 390 449 22,000 -2,340 Descending Edmonton Center
04:01PM 52.5000 -114.1667 11° North 360 414 19,400 -3,000 Descending Edmonton Center
04:02PM 52.6000 -114.1333 11° North 350 403 16,100 -2,760 Descending Edmonton Center
04:03PM 52.7000 -114.1000 26° Northeast 340 391 13,900 -1,800 Descending Edmonton Center
04:04PM 52.7833 -114.0333 31° Northeast 350 403 12,600 -1,020 Descending Edmonton Center
04:05PM 52.8667 -113.9500 42° Northeast 350 403 11,900 -960 Descending Edmonton Center
04:06PM 52.9333 -113.8500 37° Northeast 310 357 10,700 -1,620 Descending Edmonton Center
04:07PM 53.0000 -113.7667 39° Northeast 280 322 8,700 -1,920 Descending Edmonton Center
04:08PM 53.0500 -113.7000 31° Northeast 280 322 6,900 -1,440 Descending Edmonton Center
04:09PM 53.1167 -113.6333 45° Northeast 260 299 5,900 -900 Descending Edmonton Center
04:10PM 53.1667 -113.5500 42° Northeast 220 253 5,200 -1,140 Descending Edmonton Center
04:11PM 53.2000 -113.5000 329° Northwest 190 219 3,700 -1,020 Descending Edmonton Center
04:12PM 53.2333 -113.5333 310° West 150 173 3,200 -660 Descending Edmonton Center
04:13PM 53.2667 -113.6000 310° West 140 161 2,400 -420 Descending Edmonton Center
04:14PM 53.2833 -113.6333 310° West 100 115 2,400  Level Edmonton Center